Time;durP1;ratioP1;P1;durP2;ratioP2;P2;SDS_P1;SDS_P2;PMS_P1;PMS_P2;Temp;Humidity;BMP_temperature;BMP_pressure;BME280_temperature;BME280_humidity;BME280_pressure;Samples;Min_cycle;Max_cycle;Signal;HPM_P1;HPM_P2
2023/09/12 00:02:33;;;;;;;;;;;;;;;;;;5112319;27;19938;-71
2023/09/12 00:06:40;;;;;;;;;;;;;;;;;;5112169;27;19922;-71
2023/09/12 00:09:17;;;;;;;;;;;;;;;;;;5112382;27;20414;-71
2023/09/12 00:12:43;;;;;;;;;;;;;;;;;;5111837;27;19922;-71
2023/09/12 00:15:09;;;;;;;;;;;;;;;;;;5111736;28;20342;-71
2023/09/12 00:17:35;;;;;;;;;;;;;;;;;;5111251;28;19909;-71
2023/09/12 00:21:13;;;;;;;;;;;;;;;;;;5112433;27;20292;-69
2023/09/12 00:23:39;;;;;;;;;;;;;;;;;;5111824;28;20003;-70
2023/09/12 00:26:05;;;;;;;;;;;;;;;;;;5111291;28;19915;-70
2023/09/12 00:31:52;;;;;;;;;;;;;;;;;;5111528;27;19916;-72
2023/09/12 00:35:37;;;;;;;;;;;;;;;;;;5112327;27;19916;-70
2023/09/12 00:38:03;;;;;;;;;;;;;;;;;;5111777;28;19998;-70
2023/09/12 00:40:29;;;;;;;;;;;;;;;;;;5111446;28;19908;-71
2023/09/12 00:42:55;;;;;;;;;;;;;;;;;;5111836;28;19915;-70
2023/09/12 00:45:21;;;;;;;;;;;;;;;;;;5111352;28;19914;-71
2023/09/12 00:49:45;;;;;;;;;;;;;;;;;;5111941;27;19923;-70
2023/09/12 00:52:10;;;;;;;;;;;;;;;;;;5111729;28;20010;-70
2023/09/12 00:54:36;;;;;;;;;;;;;;;;;;5111285;28;19953;-71
2023/09/12 00:57:02;;;;;;;;;;;;;;;;;;5110370;28;19914;-71
2023/09/12 01:00:46;;;;;;;;;;;;;;;;;;5111761;27;20398;-72
2023/09/12 01:07:41;;;;;;;;;;;;;;;;;;5111511;27;19923;-72
2023/09/12 01:10:07;;;;;;;;;;;;;;;;;;5110481;28;20006;-72
2023/09/12 01:12:33;;;;;;;;;;;;;;;;;;5110530;28;19912;-72
2023/09/12 01:14:59;;;;;;;;;;;;;;;;;;5110043;28;19908;-72
2023/09/12 01:17:25;;;;;;;;;;;;;;;;;;5111847;28;20386;-72
2023/09/12 01:19:51;;;;;;;;;;;;;;;;;;5111862;28;19912;-72
2023/09/12 01:23:26;;;;;;;;;;;;;;;;;;5112939;27;19923;-72
2023/09/12 01:25:52;;;;;;;;;;;;;;;;;;5111783;28;20002;-70
2023/09/12 01:29:12;;;;;;;;;;;;;;;;;;5111364;27;19916;-70
2023/09/12 01:35:16;;;;;;;;;;;;;;;;;;5111530;27;19939;-70
2023/09/12 01:37:42;;;;;;;;;;;;;;;;;;5111782;28;20427;-70
2023/09/12 01:40:08;;;;;;;;;;;;;;;;;;5110422;28;19908;-70
2023/09/12 01:42:34;;;;;;;;;;;;;;;;;;5111342;28;19947;-71
2023/09/12 01:45:00;;;;;;;;;;;;;;;;;;5110336;28;19908;-70
2023/09/12 01:47:57;;;;;;;;;;;;;;;;;;5112559;27;19912;-69
2023/09/12 01:54:17;;;;;;;;;;;;;;;;;;5092209;27;19923;-71
2023/09/12 01:56:43;;;;;;;;;;;;;;;;;;5089697;28;20001;-71
2023/09/12 01:59:09;;;;;;;;;;;;;;;;;;5090013;28;19913;-70
2023/09/12 02:04:25;;;;;;;;;;;;;;;;;;5111458;27;20388;-70
2023/09/12 02:06:51;;;;;;;;;;;;;;;;;;5111726;28;20330;-70
2023/09/12 02:09:48;;;;;;;;;;;;;;;;;;5111662;27;19912;-72
2023/09/12 02:13:18;;;;;;;;;;;;;;;;;;5112225;27;20395;-69
2023/09/12 02:15:44;;;;;;;;;;;;;;;;;;5111984;28;20011;-70
2023/09/12 02:20:19;;;;;;;;;;;;;;;;;;5111799;27;19916;-72
2023/09/12 02:22:45;;;;;;;;;;;;;;;;;;5110524;28;19919;-70
2023/09/12 02:25:11;;;;;;;;;;;;;;;;;;5110081;28;20367;-70
2023/09/12 02:27:37;;;;;;;;;;;;;;;;;;5110407;28;20379;-70
2023/09/12 02:30:03;;;;;;;;;;;;;;;;;;5112147;28;20299;-71
2023/09/12 02:32:29;;;;;;;;;;;;;;;;;;5111151;28;20265;-70
2023/09/12 02:34:57;;;;;;;;;;;;;;;;;;5111544;28;19908;-70
2023/09/12 02:37:23;;;;;;;;;;;;;;;;;;5111752;28;19981;-71
2023/09/12 02:39:48;;;;;;;;;;;;;;;;;;5109691;28;20350;-70
2023/09/12 02:42:14;;;;;;;;;;;;;;;;;;5111454;28;19954;-70
2023/09/12 02:44:40;;;;;;;;;;;;;;;;;;5111354;28;19915;-70
2023/09/12 02:47:06;;;;;;;;;;;;;;;;;;5110940;28;19991;-70
2023/09/12 02:49:32;;;;;;;;;;;;;;;;;;5111214;28;19908;-70
2023/09/12 02:51:58;;;;;;;;;;;;;;;;;;5110828;28;19912;-70
2023/09/12 02:54:24;;;;;;;;;;;;;;;;;;5111154;28;19908;-70
2023/09/12 02:56:50;;;;;;;;;;;;;;;;;;5111095;28;19914;-70
2023/09/12 02:59:16;;;;;;;;;;;;;;;;;;5110479;28;19923;-70
2023/09/12 03:01:42;;;;;;;;;;;;;;;;;;5109464;28;19954;-70
2023/09/12 03:04:08;;;;;;;;;;;;;;;;;;5110779;28;19912;-70
2023/09/12 03:06:34;;;;;;;;;;;;;;;;;;5110789;28;20419;-70
2023/09/12 03:09:00;;;;;;;;;;;;;;;;;;5111023;28;19908;-70
2023/09/12 03:11:27;;;;;;;;;;;;;;;;;;5109444;28;19916;-70
2023/09/12 03:13:53;;;;;;;;;;;;;;;;;;5110281;28;19912;-70
2023/09/12 03:16:19;;;;;;;;;;;;;;;;;;5110590;28;19971;-70
2023/09/12 03:18:45;;;;;;;;;;;;;;;;;;5110361;28;20296;-70
2023/09/12 03:21:11;;;;;;;;;;;;;;;;;;5108922;28;19951;-70
2023/09/12 03:23:37;;;;;;;;;;;;;;;;;;5110482;28;19908;-70
2023/09/12 03:26:03;;;;;;;;;;;;;;;;;;5110436;28;19912;-70
2023/09/12 03:28:29;;;;;;;;;;;;;;;;;;5110027;28;19962;-72
2023/09/12 03:30:55;;;;;;;;;;;;;;;;;;5100824;28;19912;-70
2023/09/12 03:33:21;;;;;;;;;;;;;;;;;;5095429;28;19908;-71
2023/09/12 03:35:47;;;;;;;;;;;;;;;;;;5095012;28;19951;-70
2023/09/12 03:38:13;;;;;;;;;;;;;;;;;;5095283;28;19942;-70
2023/09/12 03:40:39;;;;;;;;;;;;;;;;;;5096615;28;19915;-71
2023/09/12 03:43:05;;;;;;;;;;;;;;;;;;5096237;28;20368;-71
2023/09/12 03:45:31;;;;;;;;;;;;;;;;;;5095180;28;20326;-71
2023/09/12 03:47:57;;;;;;;;;;;;;;;;;;5096496;28;20318;-71
2023/09/12 03:50:23;;;;;;;;;;;;;;;;;;5096067;28;19915;-71
2023/09/12 03:52:48;;;;;;;;;;;;;;;;;;5096353;28;19956;-71
2023/09/12 03:55:14;;;;;;;;;;;;;;;;;;5096124;28;20004;-70
2023/09/12 03:57:40;;;;;;;;;;;;;;;;;;5096297;28;19916;-71
2023/09/12 04:00:07;;;;;;;;;;;;;;;;;;5094914;28;20003;-71
2023/09/12 04:02:33;;;;;;;;;;;;;;;;;;5095817;28;20284;-70
2023/09/12 04:04:59;;;;;;;;;;;;;;;;;;5096432;28;19909;-70
2023/09/12 04:07:25;;;;;;;;;;;;;;;;;;5090129;28;19977;-70
2023/09/12 04:09:51;;;;;;;;;;;;;;;;;;5084207;28;19915;-70
2023/09/12 04:12:17;;;;;;;;;;;;;;;;;;5074520;28;20360;-71
2023/09/12 04:14:43;;;;;;;;;;;;;;;;;;5075684;28;19915;-70
2023/09/12 04:17:09;;;;;;;;;;;;;;;;;;5074958;28;19909;-70
2023/09/12 04:19:35;;;;;;;;;;;;;;;;;;5074036;28;19970;-70
2023/09/12 04:22:01;;;;;;;;;;;;;;;;;;5075770;28;19974;-71
2023/09/12 04:24:27;;;;;;;;;;;;;;;;;;5075137;28;20262;-71
2023/09/12 04:26:53;;;;;;;;;;;;;;;;;;5073252;28;19908;-71
2023/09/12 04:29:19;;;;;;;;;;;;;;;;;;5074730;28;20011;-71
2023/09/12 04:31:45;;;;;;;;;;;;;;;;;;5073943;28;19923;-71
2023/09/12 04:34:11;;;;;;;;;;;;;;;;;;5074240;28;20364;-71
2023/09/12 04:36:36;;;;;;;;;;;;;;;;;;5073993;28;19908;-71
2023/09/12 04:39:02;;;;;;;;;;;;;;;;;;5073863;28;20311;-71
2023/09/12 04:41:28;;;;;;;;;;;;;;;;;;5072785;28;20300;-71
2023/09/12 04:43:54;;;;;;;;;;;;;;;;;;5073770;28;19915;-71
2023/09/12 04:46:20;;;;;;;;;;;;;;;;;;5074144;28;20007;-71
2023/09/12 04:48:46;;;;;;;;;;;;;;;;;;5073030;28;19909;-71
2023/09/12 04:51:12;;;;;;;;;;;;;;;;;;5073062;28;20386;-72
2023/09/12 04:53:40;;;;;;;;;;;;;;;;;;5072864;28;19912;-71
2023/09/12 04:56:06;;;;;;;;;;;;;;;;;;5071568;28;19920;-71
2023/09/12 04:58:32;;;;;;;;;;;;;;;;;;5071134;28;20297;-71
2023/09/12 05:00:58;;;;;;;;;;;;;;;;;;5072723;28;19920;-71
2023/09/12 05:03:24;;;;;;;;;;;;;;;;;;5074409;28;19908;-71
2023/09/12 05:05:50;;;;;;;;;;;;;;;;;;5072978;28;19908;-71
2023/09/12 05:08:17;;;;;;;;;;;;;;;;;;5074802;28;20383;-71
2023/09/12 05:10:43;;;;;;;;;;;;;;;;;;5074630;28;20382;-72
2023/09/12 05:13:09;;;;;;;;;;;;;;;;;;5074174;28;19908;-72
2023/09/12 05:15:36;;;;;;;;;;;;;;;;;;5087175;28;19912;-71
2023/09/12 05:18:02;;;;;;;;;;;;;;;;;;5095012;28;19992;-70
2023/09/12 05:20:28;;;;;;;;;;;;;;;;;;5085186;28;20003;-71
2023/09/12 05:22:54;;;;;;;;;;;;;;;;;;5079969;28;19930;-70
2023/09/12 05:26:03;;;;;;;;;;;;;;;;;;5110520;27;19919;-71
2023/09/12 05:28:29;;;;;;;;;;;;;;;;;;5111088;28;19911;-69
2023/09/12 05:30:55;;;;;;;;;;;;;;;;;;5107091;28;19930;-70
2023/09/12 05:33:21;;;;;;;;;;;;;;;;;;5109560;28;20424;-69
2023/09/12 05:35:47;;;;;;;;;;;;;;;;;;5104159;28;20364;-67
2023/09/12 05:38:13;;;;;;;;;;;;;;;;;;5087325;28;20268;-69
2023/09/12 05:40:39;;;;;;;;;;;;;;;;;;5105825;28;19908;-69
2023/09/12 05:44:02;;;;;;;;;;;;;;;;;;5088781;27;19916;-69
2023/09/12 05:46:28;;;;;;;;;;;;;;;;;;5088810;28;19918;-68
2023/09/12 05:48:54;;;;;;;;;;;;;;;;;;5089249;28;19935;-68
2023/09/12 05:51:20;;;;;;;;;;;;;;;;;;5089942;28;20416;-69
2023/09/12 05:53:46;;;;;;;;;;;;;;;;;;5089224;28;20392;-69
2023/09/12 05:57:33;;;;;;;;;;;;;;;;;;5109097;27;19912;-68
2023/09/12 05:59:59;;;;;;;;;;;;;;;;;;5104480;28;19916;-68
2023/09/12 06:03:13;;;;;;;;;;;;;;;;;;5107843;27;19916;-69
2023/09/12 06:05:39;;;;;;;;;;;;;;;;;;5108476;28;19912;-76
2023/09/12 06:08:37;;;;;;;;;;;;;;;;;;5110406;27;19916;-76
2023/09/12 06:12:19;;;;;;;;;;;;;;;;;;5090257;27;19912;-74
2023/09/12 06:14:45;;;;;;;;;;;;;;;;;;5087645;28;19913;-71
2023/09/12 06:17:11;;;;;;;;;;;;;;;;;;5080070;28;20633;-76
2023/09/12 06:21:21;;;;;;;;;;;;;;;;;;5104637;27;19916;-70
2023/09/12 06:23:47;;;;;;;;;;;;;;;;;;5104384;28;20003;-71
2023/09/12 06:26:12;;;;;;;;;;;;;;;;;;5106481;28;19999;-72
2023/09/12 06:29:08;;;;;;;;;;;;;;;;;;5085736;27;19919;-70
2023/09/12 06:31:34;;;;;;;;;;;;;;;;;;5085226;28;20363;-72
2023/09/12 06:34:00;;;;;;;;;;;;;;;;;;5085471;28;19909;-72
2023/09/12 06:38:37;;;;;;;;;;;;;;;;;;5086322;27;19916;-72
2023/09/12 06:42:06;;;;;;;;;;;;;;;;;;5090165;27;20475;-68
2023/09/12 06:48:35;;;;;;;;;;;;;;;;;;5086392;28;19922;-68
2023/09/12 06:51:03;;;;;;;;;;;;;;;;;;5084874;28;19916;-69
2023/09/12 06:53:29;;;;;;;;;;;;;;;;;;5087102;28;20608;-71
2023/09/12 06:55:57;;;;;;;;;;;;;;;;;;5085577;28;19912;-70
2023/09/12 06:58:54;;;;;;;;;;;;;;;;;;5078125;27;20277;-70
2023/09/12 07:01:20;;;;;;;;;;;;;;;;;;5087552;28;20466;-71
2023/09/12 07:06:03;;;;;;;;;;;;;;;;;;5110579;27;19973;-68
2023/09/12 07:08:29;;;;;;;;;;;;;;;;;;5110701;28;19912;-72
2023/09/12 07:13:15;;;;;;;;;;;;;;;;;;5088686;27;20392;-70
2023/09/12 07:15:41;;;;;;;;;;;;;;;;;;5088580;28;19912;-72
2023/09/12 07:19:46;;;;;;;;;;;;;;;;;;5088660;27;19919;-70
2023/09/12 07:26:40;;;;;;;;;;;;;;;;;;5109059;27;19922;-71
2023/09/12 07:29:54;;;;;;;;;;;;;;;;;;5089077;27;19923;-69
2023/09/12 07:37:35;;;;;;;;;;;;;;;;;;5149392;27;19912;-70
2023/09/12 07:40:47;;;;;;;;;;;;;;;;;;5064338;28;19927;-69
2023/09/12 07:43:12;;;;;;;;;;;;;;;;;;5066776;28;20284;-69
2023/09/12 07:45:38;;;;;;;;;;;;;;;;;;5065628;28;19909;-69
2023/09/12 07:48:05;;;;;;;;;;;;;;;;;;5066621;28;19967;-70
2023/09/12 07:55:01;;;;;;;;;;;;;;;;;;5130769;27;20034;-71
2023/09/12 07:57:27;;;;;;;;;;;;;;;;;;5118331;28;20113;-71
2023/09/12 07:59:53;;;;;;;;;;;;;;;;;;5115765;28;19916;-70
2023/09/12 08:02:19;;;;;;;;;;;;;;;;;;5117227;28;19916;-71
2023/09/12 08:04:44;;;;;;;;;;;;;;;;;;5117366;28;19908;-71
2023/09/12 08:07:10;;;;;;;;;;;;;;;;;;5111010;28;19953;-70
2023/09/12 08:16:22;;;;;;;;;;;;;;;;;;5110354;27;19916;-64
2023/09/12 08:25:43;;;;;;;;;;;;;;;;;;5107800;27;19937;-67
2023/09/12 08:28:09;;;;;;;;;;;;;;;;;;5105725;28;19912;-65
2023/09/12 08:31:54;;;;;;;;;;;;;;;;;;5088684;27;19913;-67
2023/09/12 08:34:20;;;;;;;;;;;;;;;;;;5089553;28;19919;-66
2023/09/12 08:38:13;;;;;;;;;;;;;;;;;;5129955;27;19911;-68
2023/09/12 08:41:17;;;;;;;;;;;;;;;;;;5087475;27;19926;-66
2023/09/12 08:43:43;;;;;;;;;;;;;;;;;;5079822;28;19912;-66
2023/09/12 08:46:09;;;;;;;;;;;;;;;;;;5085485;28;19956;-67
2023/09/12 08:50:53;;;;;;;;;;;;;;;;;;5086804;27;19916;-65
2023/09/12 08:55:08;;;;;;;;;;;;;;;;;;5110543;27;20002;-65
2023/09/12 08:57:34;;;;;;;;;;;;;;;;;;5098620;28;20299;-66
2023/09/12 09:00:05;;;;;;;;;;;;;;;;;;5103180;28;19999;-66
2023/09/12 09:02:31;;;;;;;;;;;;;;;;;;5092827;28;20368;-64
2023/09/12 09:08:16;;;;;;;;;;;;;;;;;;5107543;27;19950;-66
2023/09/12 09:13:24;;;;;;;;;;;;;;;;;;5128161;27;20288;-64
2023/09/12 09:15:50;;;;;;;;;;;;;;;;;;5123639;27;19912;-65
2023/09/12 09:18:15;;;;;;;;;;;;;;;;;;5121199;27;19989;-66
2023/09/12 09:20:45;;;;;;;;;;;;;;;;;;5096285;28;19912;-66
2023/09/12 09:23:11;;;;;;;;;;;;;;;;;;5127243;28;19965;-65
2023/09/12 09:25:37;;;;;;;;;;;;;;;;;;5114477;28;19912;-64
2023/09/12 09:28:04;;;;;;;;;;;;;;;;;;5107653;28;19916;-66
2023/09/12 09:30:31;;;;;;;;;;;;;;;;;;5088012;28;20078;-66
2023/09/12 09:32:57;;;;;;;;;;;;;;;;;;5107965;28;19968;-65
2023/09/12 09:35:23;;;;;;;;;;;;;;;;;;5103038;28;19915;-66
2023/09/12 09:40:19;;;;;;;;;;;;;;;;;;5082512;27;19919;-65
2023/09/12 09:42:45;;;;;;;;;;;;;;;;;;5067981;28;19942;-65
2023/09/12 09:45:10;;;;;;;;;;;;;;;;;;5077752;28;19909;-66
2023/09/12 09:47:36;;;;;;;;;;;;;;;;;;5082297;28;20011;-64
2023/09/12 09:50:02;;;;;;;;;;;;;;;;;;5084866;28;20319;-65
2023/09/12 09:52:28;;;;;;;;;;;;;;;;;;5086014;28;19916;-65
2023/09/12 09:54:54;;;;;;;;;;;;;;;;;;5082535;28;19909;-68
2023/09/12 09:57:20;;;;;;;;;;;;;;;;;;5086663;28;19957;-65
2023/09/12 09:59:46;;;;;;;;;;;;;;;;;;5087906;28;19981;-65
2023/09/12 10:02:12;;;;;;;;;;;;;;;;;;5083975;28;19987;-66
2023/09/12 10:04:38;;;;;;;;;;;;;;;;;;5085777;28;19945;-65
2023/09/12 10:07:04;;;;;;;;;;;;;;;;;;5086055;28;19954;-66
2023/09/12 10:09:30;;;;;;;;;;;;;;;;;;5086486;28;19915;-64
2023/09/12 10:11:56;;;;;;;;;;;;;;;;;;5086855;28;19919;-66
2023/09/12 10:14:23;;;;;;;;;;;;;;;;;;5086989;28;19913;-66
2023/09/12 10:16:51;;;;;;;;;;;;;;;;;;5087039;28;19995;-66
2023/09/12 10:19:17;;;;;;;;;;;;;;;;;;5085092;28;19920;-70
2023/09/12 10:21:43;;;;;;;;;;;;;;;;;;5085007;28;20050;-72
2023/09/12 10:24:09;;;;;;;;;;;;;;;;;;5085888;28;19913;-68
2023/09/12 10:26:35;;;;;;;;;;;;;;;;;;5079967;28;19920;-69
2023/09/12 10:29:01;;;;;;;;;;;;;;;;;;5085480;28;19919;-71
2023/09/12 10:31:27;;;;;;;;;;;;;;;;;;5084383;28;19951;-72
2023/09/12 10:33:53;;;;;;;;;;;;;;;;;;5082252;28;20401;-71
2023/09/12 10:36:19;;;;;;;;;;;;;;;;;;5082323;28;19962;-71
2023/09/12 10:38:45;;;;;;;;;;;;;;;;;;5081915;28;19921;-72
2023/09/12 10:41:11;;;;;;;;;;;;;;;;;;5082799;28;19954;-71
2023/09/12 10:43:37;;;;;;;;;;;;;;;;;;5082822;28;19916;-73
2023/09/12 10:46:03;;;;;;;;;;;;;;;;;;5084773;28;20359;-71
2023/09/12 10:48:29;;;;;;;;;;;;;;;;;;5085296;28;19908;-71
2023/09/12 10:50:55;;;;;;;;;;;;;;;;;;5074175;28;19916;-73
2023/09/12 10:53:24;;;;;;;;;;;;;;;;;;5054722;28;19920;-75
2023/09/12 10:55:49;;;;;;;;;;;;;;;;;;5053402;28;19909;-71
2023/09/12 10:58:15;;;;;;;;;;;;;;;;;;5050135;28;20389;-77
2023/09/12 11:00:42;;;;;;;;;;;;;;;;;;5060896;28;20250;-72
2023/09/12 11:03:08;;;;;;;;;;;;;;;;;;5059411;28;19967;-73
2023/09/12 11:05:34;;;;;;;;;;;;;;;;;;5059934;28;20284;-72
2023/09/12 11:08:00;;;;;;;;;;;;;;;;;;5056791;28;19920;-72
2023/09/12 11:10:26;;;;;;;;;;;;;;;;;;5061506;28;19927;-72
2023/09/12 11:12:52;;;;;;;;;;;;;;;;;;5065700;28;19913;-72
2023/09/12 11:15:18;;;;;;;;;;;;;;;;;;5058797;28;19935;-71
2023/09/12 11:17:44;;;;;;;;;;;;;;;;;;5064155;28;20008;-71
2023/09/12 11:20:10;;;;;;;;;;;;;;;;;;5064223;28;20031;-72
2023/09/12 11:22:36;;;;;;;;;;;;;;;;;;5070632;28;19957;-69
2023/09/12 11:25:02;;;;;;;;;;;;;;;;;;5069366;28;20415;-70
2023/09/12 11:27:28;;;;;;;;;;;;;;;;;;5069393;28;19908;-71
2023/09/12 11:29:54;;;;;;;;;;;;;;;;;;5069771;28;19909;-71
2023/09/12 11:32:20;;;;;;;;;;;;;;;;;;5070076;28;19908;-71
2023/09/12 11:34:46;;;;;;;;;;;;;;;;;;5070677;28;19913;-71
2023/09/12 11:37:12;;;;;;;;;;;;;;;;;;5071454;28;20353;-72
2023/09/12 11:39:38;;;;;;;;;;;;;;;;;;5069823;28;20325;-72
2023/09/12 11:42:04;;;;;;;;;;;;;;;;;;5072681;28;19920;-72
2023/09/12 11:44:33;;;;;;;;;;;;;;;;;;5070789;28;19958;-72
2023/09/12 11:47:07;;;;;;;;;;;;;;;;;;5072114;28;19920;-73
2023/09/12 11:49:33;;;;;;;;;;;;;;;;;;5073205;28;19961;-72
2023/09/12 11:51:59;;;;;;;;;;;;;;;;;;5073563;28;19912;-72
2023/09/12 11:54:25;;;;;;;;;;;;;;;;;;5073645;28;19915;-71
2023/09/12 11:56:56;;;;;;;;;;;;;;;;;;5073823;28;19908;-72
2023/09/12 11:59:22;;;;;;;;;;;;;;;;;;5073954;28;19923;-73
2023/09/12 12:01:49;;;;;;;;;;;;;;;;;;5071734;28;20420;-73
2023/09/12 12:04:15;;;;;;;;;;;;;;;;;;5073774;28;19909;-73
2023/09/12 12:06:41;;;;;;;;;;;;;;;;;;5073786;28;20364;-73
2023/09/12 12:09:07;;;;;;;;;;;;;;;;;;5073085;28;19912;-73
2023/09/12 12:11:33;;;;;;;;;;;;;;;;;;5073771;28;20313;-73
2023/09/12 12:13:59;;;;;;;;;;;;;;;;;;5073822;28;20003;-72
2023/09/12 12:16:25;;;;;;;;;;;;;;;;;;5072963;28;20360;-72
2023/09/12 12:18:55;;;;;;;;;;;;;;;;;;5073252;28;20306;-72
2023/09/12 12:21:21;;;;;;;;;;;;;;;;;;5074280;28;19908;-71
2023/09/12 12:23:47;;;;;;;;;;;;;;;;;;5074035;28;20357;-72
2023/09/12 12:26:13;;;;;;;;;;;;;;;;;;5074746;28;19931;-74
2023/09/12 12:28:39;;;;;;;;;;;;;;;;;;5073981;28;19908;-71
2023/09/12 12:31:05;;;;;;;;;;;;;;;;;;5072788;28;19909;-73
2023/09/12 12:33:31;;;;;;;;;;;;;;;;;;5074387;28;20315;-71
2023/09/12 12:35:57;;;;;;;;;;;;;;;;;;5073805;28;20264;-72
2023/09/12 12:38:23;;;;;;;;;;;;;;;;;;5078494;28;19934;-71
2023/09/12 12:40:49;;;;;;;;;;;;;;;;;;5076266;28;19914;-72
2023/09/12 12:43:15;;;;;;;;;;;;;;;;;;5094004;28;19909;-72
2023/09/12 12:45:41;;;;;;;;;;;;;;;;;;5094256;28;19915;-71
2023/09/12 12:48:07;;;;;;;;;;;;;;;;;;5094046;28;20002;-72
2023/09/12 12:50:33;;;;;;;;;;;;;;;;;;5075641;28;19909;-70
2023/09/12 12:52:59;;;;;;;;;;;;;;;;;;5094145;28;19909;-72
2023/09/12 12:55:25;;;;;;;;;;;;;;;;;;5075383;28;19994;-72
2023/09/12 12:57:51;;;;;;;;;;;;;;;;;;5093786;28;20395;-71
2023/09/12 13:00:17;;;;;;;;;;;;;;;;;;5093930;28;19942;-71
2023/09/12 13:02:46;;;;;;;;;;;;;;;;;;5075951;28;19915;-71
2023/09/12 13:05:12;;;;;;;;;;;;;;;;;;5093711;28;20373;-71
2023/09/12 13:07:38;;;;;;;;;;;;;;;;;;5094294;28;19908;-73
2023/09/12 13:10:04;;;;;;;;;;;;;;;;;;5075971;28;19916;-72
2023/09/12 13:12:30;;;;;;;;;;;;;;;;;;5093822;28;19908;-72
2023/09/12 13:14:56;;;;;;;;;;;;;;;;;;5093960;28;19912;-72
2023/09/12 13:17:22;;;;;;;;;;;;;;;;;;5094267;28;19908;-72
2023/09/12 13:19:48;;;;;;;;;;;;;;;;;;5093622;28;19916;-71
2023/09/12 13:22:14;;;;;;;;;;;;;;;;;;5094090;28;20371;-71
2023/09/12 13:24:40;;;;;;;;;;;;;;;;;;5094021;28;19908;-71
2023/09/12 13:27:06;;;;;;;;;;;;;;;;;;5093522;28;20128;-72
2023/09/12 13:29:32;;;;;;;;;;;;;;;;;;5075819;28;19954;-72
2023/09/12 13:31:58;;;;;;;;;;;;;;;;;;5093692;28;19920;-72
2023/09/12 13:34:24;;;;;;;;;;;;;;;;;;5075792;28;20343;-71
2023/09/12 13:36:50;;;;;;;;;;;;;;;;;;5093825;28;20326;-72
2023/09/12 13:39:17;;;;;;;;;;;;;;;;;;5093245;28;19924;-72
2023/09/12 13:41:44;;;;;;;;;;;;;;;;;;5093939;28;19909;-72
2023/09/12 13:44:11;;;;;;;;;;;;;;;;;;5093759;28;19909;-73
2023/09/12 13:46:36;;;;;;;;;;;;;;;;;;5093374;28;19912;-72
2023/09/12 13:49:03;;;;;;;;;;;;;;;;;;5093744;28;20395;-72
2023/09/12 13:51:29;;;;;;;;;;;;;;;;;;5093773;28;19917;-72
2023/09/12 13:53:55;;;;;;;;;;;;;;;;;;5093384;28;19908;-72
2023/09/12 13:56:21;;;;;;;;;;;;;;;;;;5093725;28;19912;-72
2023/09/12 13:58:47;;;;;;;;;;;;;;;;;;5093908;28;19952;-72
2023/09/12 14:01:13;;;;;;;;;;;;;;;;;;5093248;28;20348;-72
2023/09/12 14:03:38;;;;;;;;;;;;;;;;;;5093766;28;20010;-72
2023/09/12 14:06:04;;;;;;;;;;;;;;;;;;5093559;28;19915;-72
2023/09/12 14:08:30;;;;;;;;;;;;;;;;;;5093137;28;19909;-72
2023/09/12 14:10:56;;;;;;;;;;;;;;;;;;5093632;28;19912;-73
2023/09/12 14:13:22;;;;;;;;;;;;;;;;;;5075272;28;20000;-72
2023/09/12 14:15:49;;;;;;;;;;;;;;;;;;5093124;28;20376;-72
2023/09/12 14:18:15;;;;;;;;;;;;;;;;;;5093318;28;19916;-72
2023/09/12 14:20:41;;;;;;;;;;;;;;;;;;5093413;28;19919;-72
2023/09/12 14:23:07;;;;;;;;;;;;;;;;;;5074849;28;19909;-72
2023/09/12 14:25:33;;;;;;;;;;;;;;;;;;5076669;28;19912;-73
2023/09/12 14:27:59;;;;;;;;;;;;;;;;;;5097311;28;19908;-72
2023/09/12 14:30:33;;;;;;;;;;;;;;;;;;5096944;28;19976;-72
2023/09/12 14:32:59;;;;;;;;;;;;;;;;;;5097495;28;19908;-73
2023/09/12 14:35:25;;;;;;;;;;;;;;;;;;5096773;28;19916;-72
2023/09/12 14:37:51;;;;;;;;;;;;;;;;;;5097012;28;19912;-70
2023/09/12 14:40:17;;;;;;;;;;;;;;;;;;5096973;28;19962;-71
2023/09/12 14:42:43;;;;;;;;;;;;;;;;;;5096562;28;19915;-71
2023/09/12 14:45:09;;;;;;;;;;;;;;;;;;5096864;28;19912;-72
2023/09/12 14:47:36;;;;;;;;;;;;;;;;;;5096932;28;19909;-73
2023/09/12 14:50:02;;;;;;;;;;;;;;;;;;5096743;28;19908;-73
2023/09/12 14:52:28;;;;;;;;;;;;;;;;;;5096868;28;19914;-73
2023/09/12 14:54:54;;;;;;;;;;;;;;;;;;5090809;28;19919;-72
2023/09/12 14:57:20;;;;;;;;;;;;;;;;;;5096501;28;19908;-73
2023/09/12 14:59:46;;;;;;;;;;;;;;;;;;5096596;28;19924;-73
2023/09/12 15:02:12;;;;;;;;;;;;;;;;;;5096700;28;19999;-73
2023/09/12 15:04:37;;;;;;;;;;;;;;;;;;5096323;28;19908;-72
2023/09/12 15:07:03;;;;;;;;;;;;;;;;;;5096329;28;19912;-72
2023/09/12 15:09:29;;;;;;;;;;;;;;;;;;5096471;28;19914;-72
2023/09/12 15:11:55;;;;;;;;;;;;;;;;;;5096110;28;19908;-73
2023/09/12 15:14:22;;;;;;;;;;;;;;;;;;5096636;28;19908;-73
2023/09/12 15:16:48;;;;;;;;;;;;;;;;;;5096356;28;20011;-73
2023/09/12 15:19:14;;;;;;;;;;;;;;;;;;5095811;28;20011;-72
2023/09/12 15:21:40;;;;;;;;;;;;;;;;;;5096338;28;19915;-72
2023/09/12 15:24:06;;;;;;;;;;;;;;;;;;5096575;28;19965;-73
2023/09/12 15:26:32;;;;;;;;;;;;;;;;;;5095806;28;19908;-73
2023/09/12 15:28:59;;;;;;;;;;;;;;;;;;5077978;28;19915;-73
2023/09/12 15:31:25;;;;;;;;;;;;;;;;;;5096104;28;19908;-70
2023/09/12 15:33:51;;;;;;;;;;;;;;;;;;5095815;28;19914;-72
2023/09/12 15:36:17;;;;;;;;;;;;;;;;;;5095872;28;19909;-72
2023/09/12 15:38:43;;;;;;;;;;;;;;;;;;5095265;28;19920;-72
2023/09/12 15:41:09;;;;;;;;;;;;;;;;;;5096155;28;19908;-72
2023/09/12 15:43:35;;;;;;;;;;;;;;;;;;5095876;28;19908;-73
2023/09/12 15:46:01;;;;;;;;;;;;;;;;;;5095349;28;19915;-73
2023/09/12 15:48:27;;;;;;;;;;;;;;;;;;5095806;28;19990;-72
2023/09/12 15:50:53;;;;;;;;;;;;;;;;;;5095666;28;20003;-72
2023/09/12 15:53:19;;;;;;;;;;;;;;;;;;5095259;28;19908;-72
2023/09/12 15:55:48;;;;;;;;;;;;;;;;;;5095916;28;19908;-72
2023/09/12 15:58:14;;;;;;;;;;;;;;;;;;5095433;28;19908;-72
2023/09/12 16:00:40;;;;;;;;;;;;;;;;;;5095022;28;19912;-72
2023/09/12 16:03:06;;;;;;;;;;;;;;;;;;5095427;28;19908;-72
2023/09/12 16:05:32;;;;;;;;;;;;;;;;;;5095490;28;19908;-72
2023/09/12 16:07:58;;;;;;;;;;;;;;;;;;5094913;28;19907;-71
2023/09/12 16:10:24;;;;;;;;;;;;;;;;;;5095357;28;20333;-72
2023/09/12 16:12:50;;;;;;;;;;;;;;;;;;5095186;28;19948;-72
2023/09/12 16:15:15;;;;;;;;;;;;;;;;;;5094907;28;19908;-72
2023/09/12 16:17:43;;;;;;;;;;;;;;;;;;5095582;28;19915;-72
2023/09/12 16:20:09;;;;;;;;;;;;;;;;;;5095082;28;19916;-72
2023/09/12 16:22:36;;;;;;;;;;;;;;;;;;5094749;28;19909;-72
2023/09/12 16:25:02;;;;;;;;;;;;;;;;;;5076911;28;20301;-72
2023/09/12 16:27:27;;;;;;;;;;;;;;;;;;5095087;28;19915;-72
2023/09/12 16:29:54;;;;;;;;;;;;;;;;;;5094529;28;19915;-72
2023/09/12 16:32:20;;;;;;;;;;;;;;;;;;5095152;28;19912;-71
2023/09/12 16:34:46;;;;;;;;;;;;;;;;;;5094411;28;19908;-71
2023/09/12 16:37:12;;;;;;;;;;;;;;;;;;5094744;28;19938;-71
2023/09/12 16:39:41;;;;;;;;;;;;;;;;;;5094529;28;19921;-71
2023/09/12 16:42:07;;;;;;;;;;;;;;;;;;5094549;28;19912;-71
2023/09/12 16:44:33;;;;;;;;;;;;;;;;;;5094610;28;20258;-71
2023/09/12 16:46:59;;;;;;;;;;;;;;;;;;5094692;28;20324;-71
2023/09/12 16:49:25;;;;;;;;;;;;;;;;;;5093725;28;20280;-71
2023/09/12 16:51:51;;;;;;;;;;;;;;;;;;5094525;28;19957;-71
2023/09/12 16:54:17;;;;;;;;;;;;;;;;;;5094477;28;19908;-71
2023/09/12 16:56:43;;;;;;;;;;;;;;;;;;5094087;28;19908;-71
2023/09/12 16:59:09;;;;;;;;;;;;;;;;;;5076137;28;20010;-71
2023/09/12 17:01:35;;;;;;;;;;;;;;;;;;5094362;28;19912;-71
2023/09/12 17:04:01;;;;;;;;;;;;;;;;;;5094089;28;19908;-71
2023/09/12 17:06:29;;;;;;;;;;;;;;;;;;5094323;28;20006;-71
2023/09/12 17:08:56;;;;;;;;;;;;;;;;;;5094301;28;19914;-71
2023/09/12 17:11:22;;;;;;;;;;;;;;;;;;5093893;28;19915;-71
2023/09/12 17:13:48;;;;;;;;;;;;;;;;;;5094127;28;19909;-70
2023/09/12 17:16:15;;;;;;;;;;;;;;;;;;5094384;28;20272;-71
2023/09/12 17:18:41;;;;;;;;;;;;;;;;;;5093757;28;20359;-71
2023/09/12 17:21:07;;;;;;;;;;;;;;;;;;5094220;28;19912;-71
2023/09/12 17:23:32;;;;;;;;;;;;;;;;;;5094214;28;20318;-71
2023/09/12 17:25:58;;;;;;;;;;;;;;;;;;5093644;28;19908;-70
2023/09/12 17:28:24;;;;;;;;;;;;;;;;;;5093938;28;19931;-70
2023/09/12 17:30:50;;;;;;;;;;;;;;;;;;5093922;28;19908;-71
2023/09/12 17:33:16;;;;;;;;;;;;;;;;;;5075466;28;19913;-71
2023/09/12 17:35:42;;;;;;;;;;;;;;;;;;5093477;28;19930;-69
2023/09/12 17:38:08;;;;;;;;;;;;;;;;;;5093021;28;19915;-70
2023/09/12 17:40:34;;;;;;;;;;;;;;;;;;5075700;28;19961;-70
2023/09/12 17:43:00;;;;;;;;;;;;;;;;;;5093771;28;19966;-69
2023/09/12 17:45:26;;;;;;;;;;;;;;;;;;5093272;28;19912;-69
2023/09/12 17:48:07;;;;;;;;;;;;;;;;;;5111750;27;20390;-71
2023/09/12 17:50:33;;;;;;;;;;;;;;;;;;5110619;28;20018;-69
2023/09/12 17:53:00;;;;;;;;;;;;;;;;;;5111142;28;19908;-68
2023/09/12 17:55:26;;;;;;;;;;;;;;;;;;5111463;28;19939;-69
2023/09/12 17:57:52;;;;;;;;;;;;;;;;;;5111469;28;20372;-68
2023/09/12 18:00:20;;;;;;;;;;;;;;;;;;5111021;28;19908;-69
2023/09/12 18:02:46;;;;;;;;;;;;;;;;;;5110072;28;19991;-69
2023/09/12 18:05:12;;;;;;;;;;;;;;;;;;5111442;28;19939;-69
2023/09/12 18:07:38;;;;;;;;;;;;;;;;;;5109699;28;19916;-69
2023/09/12 18:13:26;;;;;;;;;;;;;;;;;;5111564;27;19919;-70
2023/09/12 18:17:47;;;;;;;;;;;;;;;;;;5091430;27;19923;-69
2023/09/12 18:20:51;;;;;;;;;;;;;;;;;;5153171;27;19911;-69
2023/09/12 18:23:17;;;;;;;;;;;;;;;;;;5153148;27;19956;-68
2023/09/12 18:25:43;;;;;;;;;;;;;;;;;;5134305;27;19943;-71